Hartford, Connecticut
Traffic Map
Current Weather Conditions
Hartford, Connecticut
Overcast Light Rain
Overcast
22°
Feels Like: 22°
Wind Chill: 22° Ceiling: 11000
Heat Index: 22° Visibility: 8mi
Dew Point: 21° Wind: 0mph
Humidity: 93% Direction: ° ()
Pressure: 29.81in Gusts: 0mph
Raw Report DataKHFD 231053Z 00000KT 8SM -RA FEW080 OVC110 22/21 A2981 RMK AO2 RAB08 SLP095 P0001 T02220211
Traffic Incident Summary
Active as of:
Severity:
Category:
InformationThere was an issue retrieving the traffic information for this location. Please try a different location or try again shortly.
Advertisements
Track Severe Weather on mobile